createdAt,value
2023-05-05T00:00:55.349Z,67.43
2023-05-05T00:03:24.142Z,67.58
2023-05-05T00:05:52.522Z,66.94
2023-05-05T00:08:20.191Z,67.87
2023-05-05T00:10:48.713Z,67.09
2023-05-05T00:13:16.329Z,66.50
2023-05-05T00:15:46.073Z,67.25
2023-05-05T00:18:16.739Z,67.67
2023-05-05T00:20:44.609Z,66.01
2023-05-05T00:23:12.494Z,68.02
2023-05-05T00:25:40.250Z,66.83
2023-05-05T00:28:07.864Z,66.31
2023-05-05T00:30:35.473Z,68.04
2023-05-05T00:33:03.137Z,66.58
2023-05-05T00:35:32.242Z,68.40
2023-05-05T00:37:59.861Z,67.75
2023-05-05T00:40:27.703Z,67.29
2023-05-05T00:42:55.404Z,66.44
2023-05-05T00:45:23.121Z,67.22
2023-05-05T00:47:53.353Z,67.32
2023-05-05T00:50:24.607Z,67.63
2023-05-05T00:52:55.617Z,68.13
2023-05-05T00:55:23.549Z,69.05
2023-05-05T00:57:51.349Z,68.25
2023-05-05T01:00:19.012Z,68.53
2023-05-05T01:02:46.813Z,69.28
2023-05-05T01:05:16.068Z,67.87
2023-05-05T01:08:04.790Z,68.48
2023-05-05T01:10:39.339Z,68.28
2023-05-05T01:13:21.521Z,69.51
2023-05-05T01:15:53.486Z,70.07
2023-05-05T01:18:30.766Z,69.59
2023-05-05T01:21:03.192Z,69.68
2023-05-05T01:23:48.563Z,69.80
2023-05-05T01:26:34.306Z,69.70
2023-05-05T01:29:15.865Z,69.85
2023-05-05T01:31:51.595Z,69.60
2023-05-05T01:34:25.569Z,69.51
2023-05-05T01:36:58.774Z,69.78
2023-05-05T01:39:32.466Z,70.23
2023-05-05T01:42:05.829Z,70.51
2023-05-05T01:44:36.137Z,70.91
2023-05-05T01:47:07.305Z,70.51
2023-05-05T01:49:37.314Z,69.38
2023-05-05T01:52:07.019Z,69.94
2023-05-05T01:54:36.029Z,71.05
2023-05-05T01:57:05.841Z,70.62
2023-05-05T01:59:34.905Z,71.38
2023-05-05T02:02:05.042Z,70.98
2023-05-05T02:04:34.570Z,71.98
2023-05-05T02:07:04.183Z,71.95
2023-05-05T02:09:33.095Z,71.80
2023-05-05T02:12:02.870Z,71.73
2023-05-05T02:14:31.516Z,71.39
2023-05-05T02:16:59.511Z,71.87
2023-05-05T02:19:31.546Z,72.13
2023-05-05T02:21:59.473Z,72.53
2023-05-05T02:24:27.447Z,72.31
2023-05-05T02:26:57.231Z,71.88
2023-05-05T02:29:31.783Z,70.58
2023-05-05T02:32:04.497Z,73.30
2023-05-05T02:34:36.900Z,71.78
2023-05-05T02:37:08.180Z,73.10
2023-05-05T02:39:43.536Z,72.55
2023-05-05T02:42:14.202Z,73.48
2023-05-05T02:44:43.574Z,72.66
2023-05-05T02:47:11.252Z,73.51
2023-05-05T02:49:40.277Z,73.82
2023-05-05T02:52:07.905Z,73.38
2023-05-05T02:54:35.585Z,73.20
2023-05-05T02:57:03.989Z,73.61
2023-05-05T02:59:37.649Z,75.66
2023-05-05T03:02:15.597Z,73.59
2023-05-05T03:04:50.164Z,73.58
2023-05-05T03:07:24.704Z,75.01
2023-05-05T03:09:59.051Z,74.37
2023-05-05T03:12:31.904Z,74.35
2023-05-05T03:15:01.865Z,75.12
2023-05-05T03:17:32.067Z,74.37
2023-05-05T03:20:03.861Z,74.28
2023-05-05T03:22:31.872Z,73.42
2023-05-05T03:24:59.481Z,75.25
2023-05-05T03:27:27.107Z,75.54
2023-05-05T03:29:54.804Z,75.38
2023-05-05T03:32:23.660Z,74.93
2023-05-05T03:34:51.498Z,74.82
2023-05-05T03:37:20.504Z,74.63
2023-05-05T03:39:48.136Z,75.20
2023-05-05T03:42:15.767Z,75.75
2023-05-05T03:44:43.527Z,75.98
2023-05-05T03:47:11.190Z,76.39
2023-05-05T03:49:38.835Z,75.24
2023-05-05T03:52:06.541Z,76.04
2023-05-05T03:54:35.517Z,74.45
2023-05-05T03:57:03.948Z,75.28
2023-05-05T03:59:31.816Z,75.85
2023-05-05T04:01:59.450Z,75.94
2023-05-05T04:04:27.271Z,75.21
2023-05-05T04:06:55.004Z,75.95
2023-05-05T04:09:22.633Z,75.16
2023-05-05T04:11:51.677Z,76.68
2023-05-05T04:14:19.308Z,75.96
2023-05-05T04:16:46.957Z,75.45
2023-05-05T04:19:14.633Z,76.14
2023-05-05T04:21:42.376Z,75.49
2023-05-05T04:24:10.308Z,75.65
2023-05-05T04:26:38.093Z,75.25
2023-05-05T04:29:07.058Z,76.03
2023-05-05T04:31:34.698Z,76.52
2023-05-05T04:34:02.418Z,77.00
2023-05-05T04:36:30.092Z,76.68
2023-05-05T04:38:58.058Z,76.75
2023-05-05T04:41:26.467Z,77.10
2023-05-05T04:43:55.454Z,76.26
2023-05-05T04:46:25.915Z,77.35
2023-05-05T04:48:53.575Z,76.49
2023-05-05T04:51:21.232Z,76.59
2023-05-05T04:53:48.843Z,76.13
2023-05-05T04:56:16.497Z,76.15
2023-05-05T04:58:44.143Z,74.28
2023-05-05T05:01:11.762Z,71.92
2023-05-05T05:03:40.945Z,68.56
2023-05-05T05:06:08.763Z,67.73
2023-05-05T05:08:36.548Z,69.15
2023-05-05T05:11:04.217Z,68.87
2023-05-05T05:13:31.944Z,70.46
2023-05-05T05:15:59.611Z,71.33
2023-05-05T05:18:27.338Z,71.40
2023-05-05T05:20:56.575Z,68.33
2023-05-05T05:23:24.306Z,68.00
2023-05-05T05:25:51.961Z,71.45
2023-05-05T05:28:19.562Z,69.88
2023-05-05T05:30:47.309Z,69.63
2023-05-05T05:33:15.050Z,70.17
2023-05-05T05:35:42.683Z,70.58
2023-05-05T05:38:11.680Z,70.79
2023-05-05T05:40:39.328Z,66.73
2023-05-05T05:43:06.936Z,66.00
2023-05-05T05:45:34.549Z,65.61
2023-05-05T05:48:02.217Z,66.02
2023-05-05T05:50:29.903Z,66.20
2023-05-05T05:52:57.565Z,63.31
2023-05-05T05:55:26.583Z,62.75
2023-05-05T05:57:54.240Z,67.65
2023-05-05T06:00:21.897Z,65.01
2023-05-05T06:02:51.342Z,66.36
2023-05-05T06:05:19.213Z,68.26
2023-05-05T06:07:46.856Z,69.17
2023-05-05T06:10:26.820Z,70.98
2023-05-05T06:12:57.251Z,73.47
2023-05-05T06:15:25.796Z,72.69
2023-05-05T06:17:53.489Z,70.29
2023-05-05T06:20:21.157Z,70.08
2023-05-05T06:22:48.785Z,65.02
2023-05-05T06:25:16.632Z,66.87
2023-05-05T06:27:44.225Z,64.38
2023-05-05T06:30:14.619Z,69.80
2023-05-05T06:32:42.266Z,65.88
2023-05-05T06:35:10.969Z,67.83
2023-05-05T06:37:38.581Z,62.74
2023-05-05T06:40:07.878Z,64.29
2023-05-05T06:42:35.939Z,63.25
2023-05-05T06:45:03.636Z,59.82
2023-05-05T06:47:32.636Z,58.40
2023-05-05T06:50:00.287Z,65.96
2023-05-05T06:52:28.184Z,70.24
2023-05-05T06:54:56.165Z,69.56
2023-05-05T06:57:23.837Z,71.41
2023-05-05T06:59:51.506Z,70.04
2023-05-05T07:02:19.130Z,68.24
2023-05-05T07:04:48.122Z,67.73
2023-05-05T07:07:16.721Z,68.42
2023-05-05T07:09:44.990Z,66.44
2023-05-05T07:12:12.644Z,67.57
2023-05-05T07:14:40.855Z,66.56
2023-05-05T07:17:08.482Z,66.62
2023-05-05T07:19:38.948Z,66.83
2023-05-05T07:22:08.250Z,66.17
2023-05-05T07:24:36.002Z,66.31
2023-05-05T07:27:03.699Z,66.66
2023-05-05T07:29:31.549Z,67.59
2023-05-05T07:32:00.091Z,67.50
2023-05-05T07:34:27.818Z,69.26
2023-05-05T07:36:56.381Z,68.82
2023-05-05T07:39:25.395Z,69.17
2023-05-05T07:41:52.998Z,69.34
2023-05-05T07:44:20.640Z,69.49
2023-05-05T07:46:48.418Z,67.86
2023-05-05T07:49:16.407Z,68.47
2023-05-05T07:51:44.891Z,67.71
2023-05-05T07:54:12.568Z,65.11
2023-05-05T07:56:41.538Z,64.07
2023-05-05T07:59:09.286Z,63.23
2023-05-05T08:01:36.974Z,65.55
2023-05-05T08:04:04.815Z,65.96
2023-05-05T08:06:32.885Z,66.18
2023-05-05T08:09:01.840Z,63.47
2023-05-05T08:11:29.831Z,62.75
2023-05-05T08:13:59.803Z,61.20
2023-05-05T08:16:27.763Z,58.73
2023-05-05T08:18:55.626Z,59.97
2023-05-05T08:21:32.185Z,60.24
2023-05-05T08:23:59.945Z,55.71
2023-05-05T08:26:27.705Z,57.61
2023-05-05T08:29:00.585Z,55.22
2023-05-05T08:31:30.595Z,57.89
2023-05-05T08:34:08.232Z,60.81
2023-05-05T08:36:35.874Z,61.09
2023-05-05T08:39:03.634Z,61.60
2023-05-05T08:41:32.005Z,62.67
2023-05-05T08:43:59.747Z,58.57
2023-05-05T08:46:30.685Z,60.24
2023-05-05T08:48:59.080Z,60.75
2023-05-05T08:51:31.050Z,62.10
2023-05-05T08:54:03.047Z,62.03
2023-05-05T08:56:34.252Z,62.37
2023-05-05T08:59:03.528Z,61.48
2023-05-05T09:01:33.851Z,57.22
2023-05-05T09:04:01.657Z,56.51
2023-05-05T09:06:32.146Z,56.23
2023-05-05T09:08:59.881Z,58.59
2023-05-05T09:11:28.020Z,57.78
2023-05-05T09:13:56.418Z,58.56
2023-05-05T09:16:24.155Z,61.95
2023-05-05T09:19:02.237Z,60.13
2023-05-05T09:21:30.134Z,60.16
2023-05-05T09:24:09.628Z,61.30
2023-05-05T09:26:38.998Z,63.07
2023-05-05T09:29:06.815Z,61.32
2023-05-05T09:31:36.429Z,59.93
2023-05-05T09:34:15.492Z,61.17
2023-05-05T09:36:44.621Z,61.72
2023-05-05T09:39:12.284Z,62.93
2023-05-05T09:41:40.989Z,62.42
2023-05-05T09:44:09.109Z,62.68
2023-05-05T09:46:36.839Z,63.08
2023-05-05T09:49:23.479Z,61.98
2023-05-05T09:51:52.772Z,61.95
2023-05-05T09:54:24.782Z,62.86
2023-05-05T09:56:52.569Z,62.78
2023-05-05T09:59:21.168Z,62.30
2023-05-05T10:01:49.708Z,60.48
2023-05-05T10:04:29.923Z,60.52
2023-05-05T10:06:58.909Z,62.00
2023-05-05T10:09:28.675Z,60.61
2023-05-05T10:11:59.000Z,60.58
2023-05-05T10:14:28.339Z,60.77
2023-05-05T10:16:56.569Z,59.99
2023-05-05T10:19:25.338Z,60.33
2023-05-05T10:21:55.556Z,59.19
2023-05-05T10:24:35.407Z,58.87
2023-05-05T10:27:09.160Z,58.62
2023-05-05T10:29:45.786Z,58.31
2023-05-05T10:32:47.251Z,56.89
2023-05-05T10:35:09.947Z,55.91
2023-05-05T10:37:39.978Z,56.30
2023-05-05T10:40:10.541Z,55.87
2023-05-05T10:42:40.445Z,55.86
2023-05-05T10:45:08.936Z,54.54
2023-05-05T10:47:38.241Z,55.06
2023-05-05T10:50:12.879Z,55.36
2023-05-05T10:52:54.856Z,55.13
2023-05-05T10:55:33.669Z,55.30
2023-05-05T10:58:01.691Z,53.57
2023-05-05T11:00:51.928Z,55.23
2023-05-05T11:03:23.592Z,55.92
2023-05-05T11:06:18.171Z,56.64
2023-05-05T11:08:47.320Z,56.38
2023-05-05T11:11:15.060Z,56.35
2023-05-05T11:13:42.790Z,56.32
2023-05-05T11:16:44.838Z,56.37
2023-05-05T11:19:46.742Z,58.07
2023-05-05T11:22:15.355Z,57.04
2023-05-05T11:24:44.868Z,57.54
2023-05-05T11:27:12.592Z,56.52
2023-05-05T11:30:08.662Z,56.44
2023-05-05T11:32:36.994Z,55.27
2023-05-05T11:35:06.146Z,55.28
2023-05-05T11:37:34.609Z,57.45
2023-05-05T11:40:16.257Z,57.30
2023-05-05T11:42:43.921Z,58.57
2023-05-05T11:45:22.637Z,58.72
2023-05-05T11:47:50.958Z,58.44
2023-05-05T11:50:21.379Z,57.62
2023-05-05T11:52:49.162Z,58.48
2023-05-05T11:55:24.469Z,59.07
2023-05-05T11:57:52.253Z,59.62
2023-05-05T12:00:20.538Z,59.61
2023-05-05T12:02:56.521Z,59.79
2023-05-05T12:05:24.333Z,59.65
2023-05-05T12:07:58.508Z,59.36
2023-05-05T12:10:28.026Z,58.92
2023-05-05T12:12:55.955Z,58.26
2023-05-05T12:15:31.615Z,60.23
2023-05-05T12:18:02.074Z,59.08
2023-05-05T12:20:32.002Z,58.44
2023-05-05T12:23:04.546Z,58.76
2023-05-05T12:25:38.424Z,58.63
2023-05-05T12:28:07.414Z,59.47
2023-05-05T12:30:36.001Z,58.14
2023-05-05T12:33:04.739Z,59.97
2023-05-05T12:35:33.234Z,60.14
2023-05-05T12:38:00.963Z,59.50
2023-05-05T12:40:47.641Z,61.13
2023-05-05T12:43:26.590Z,61.80
2023-05-05T12:46:05.582Z,63.70
2023-05-05T12:48:35.870Z,65.26
2023-05-05T12:51:14.562Z,64.31
2023-05-05T12:53:42.237Z,63.98
2023-05-05T12:56:40.992Z,65.72
2023-05-05T12:59:10.927Z,65.17
2023-05-05T13:01:49.602Z,63.65
2023-05-05T13:04:18.090Z,62.38
2023-05-05T13:06:47.388Z,62.73
2023-05-05T13:09:25.191Z,61.30
2023-05-05T13:11:54.803Z,61.17
2023-05-05T13:14:23.192Z,60.02
2023-05-05T13:16:50.895Z,59.44
2023-05-05T13:19:18.506Z,59.42
2023-05-05T13:21:46.197Z,57.84
2023-05-05T13:24:26.153Z,59.02
2023-05-05T13:27:00.429Z,58.54
2023-05-05T13:29:31.087Z,58.42
2023-05-05T13:31:59.440Z,57.95
2023-05-05T13:34:27.142Z,56.21
2023-05-05T13:36:54.996Z,57.90
2023-05-05T13:39:22.736Z,58.63
2023-05-05T13:41:50.547Z,58.08
2023-05-05T13:44:19.561Z,58.75
2023-05-05T13:46:47.458Z,58.92
2023-05-05T13:49:15.124Z,57.61
2023-05-05T13:51:42.983Z,58.33
2023-05-05T13:54:11.015Z,56.55
2023-05-05T13:56:38.699Z,56.16
2023-05-05T13:59:06.331Z,57.63
2023-05-05T14:01:35.374Z,55.41
2023-05-05T14:04:05.353Z,57.08
2023-05-05T14:06:33.492Z,57.52
2023-05-05T14:09:01.423Z,57.73
2023-05-05T14:11:29.147Z,58.22
2023-05-05T14:13:56.804Z,58.35
2023-05-05T14:16:24.463Z,57.83
2023-05-05T14:18:53.503Z,58.00
2023-05-05T14:21:21.149Z,58.14
2023-05-05T14:23:48.777Z,58.51
2023-05-05T14:26:16.644Z,58.88
2023-05-05T14:28:44.507Z,58.88
2023-05-05T14:31:12.182Z,59.00
2023-05-05T14:33:39.802Z,60.09
2023-05-05T14:36:09.788Z,60.30
2023-05-05T14:38:37.455Z,64.98
2023-05-05T14:41:05.595Z,66.72
2023-05-05T14:43:33.200Z,70.36
2023-05-05T14:46:06.393Z,73.21
2023-05-05T14:48:34.722Z,72.31
2023-05-05T14:51:02.598Z,71.49
2023-05-05T14:53:31.704Z,69.32
2023-05-05T14:55:59.496Z,70.86
2023-05-05T14:58:27.113Z,70.03
2023-05-05T15:00:54.793Z,69.98
2023-05-05T15:03:22.563Z,70.08
2023-05-05T15:05:50.254Z,68.44
2023-05-05T15:08:19.309Z,69.98
2023-05-05T15:10:48.447Z,69.77
2023-05-05T15:13:17.184Z,66.93
2023-05-05T15:15:45.079Z,65.65
2023-05-05T15:18:12.888Z,65.94
2023-05-05T15:20:40.532Z,66.47
2023-05-05T15:23:08.225Z,65.30
2023-05-05T15:25:36.496Z,65.07
2023-05-05T15:28:05.611Z,64.93
2023-05-05T15:30:33.467Z,65.47
2023-05-05T15:33:01.251Z,63.71
2023-05-05T15:35:28.953Z,64.00
2023-05-05T15:37:56.616Z,63.18
2023-05-05T15:40:24.405Z,62.91
2023-05-05T15:42:52.139Z,64.13
2023-05-05T15:45:21.165Z,63.74
2023-05-05T15:47:50.452Z,63.88
2023-05-05T15:50:18.180Z,63.92
2023-05-05T15:52:46.695Z,64.08
2023-05-05T15:55:15.233Z,64.48
2023-05-05T15:57:42.935Z,64.97
2023-05-05T16:00:11.533Z,63.48
2023-05-05T16:02:40.576Z,63.07
2023-05-05T16:05:09.162Z,63.40
2023-05-05T16:07:36.979Z,61.86
2023-05-05T16:10:04.938Z,62.89
2023-05-05T16:12:32.661Z,63.90
2023-05-05T16:15:00.357Z,62.86
2023-05-05T16:17:28.114Z,63.94
2023-05-05T16:19:57.155Z,63.99
2023-05-05T16:22:24.776Z,64.98
2023-05-05T16:24:52.417Z,63.02
2023-05-05T16:27:20.237Z,63.44
2023-05-05T16:29:47.921Z,64.13
2023-05-05T16:32:15.509Z,64.56
2023-05-05T16:34:43.210Z,64.62
2023-05-05T16:37:12.700Z,64.62
2023-05-05T16:39:41.191Z,64.10
2023-05-05T16:42:08.974Z,64.20
2023-05-05T16:44:36.648Z,64.11
2023-05-05T16:47:04.394Z,64.52
2023-05-05T16:49:32.022Z,63.29
2023-05-05T16:52:02.582Z,65.35
2023-05-05T16:54:31.539Z,63.58
2023-05-05T16:56:59.264Z,64.39
2023-05-05T16:59:26.877Z,63.64
2023-05-05T17:01:54.527Z,66.10
2023-05-05T17:04:22.255Z,65.59
2023-05-05T17:06:49.953Z,65.51
2023-05-05T17:09:17.619Z,64.61
2023-05-05T17:11:46.633Z,64.34
2023-05-05T17:14:14.461Z,65.55
2023-05-05T17:16:42.221Z,64.87
2023-05-05T17:19:10.003Z,66.26
2023-05-05T17:21:37.698Z,66.07
2023-05-05T17:24:06.285Z,65.66
2023-05-05T17:26:33.946Z,65.98
2023-05-05T17:29:02.879Z,67.98
2023-05-05T17:31:30.597Z,67.27
2023-05-05T17:33:58.550Z,67.74
2023-05-05T17:36:26.322Z,68.68
2023-05-05T17:38:53.952Z,68.34
2023-05-05T17:41:21.891Z,70.73
2023-05-05T17:43:49.552Z,71.11
2023-05-05T17:46:18.541Z,73.68
2023-05-05T17:48:46.209Z,73.15
2023-05-05T17:51:13.868Z,75.16
2023-05-05T17:53:41.507Z,77.00
2023-05-05T17:56:09.329Z,79.57
2023-05-05T17:58:37.030Z,80.89
2023-05-05T18:01:04.796Z,81.35
2023-05-05T18:03:34.224Z,80.30
2023-05-05T18:06:02.376Z,82.31
2023-05-05T18:08:30.065Z,83.58
2023-05-05T18:10:57.742Z,83.23
2023-05-05T18:13:25.369Z,83.76
2023-05-05T18:15:53.009Z,82.22
2023-05-05T18:18:20.720Z,83.99
2023-05-05T18:20:49.768Z,81.91
2023-05-05T18:23:17.566Z,82.34
2023-05-05T18:25:45.206Z,82.15
2023-05-05T18:28:12.983Z,80.94
2023-05-05T18:30:40.688Z,82.22
2023-05-05T18:33:08.343Z,82.39
2023-05-05T18:35:36.058Z,82.29
2023-05-05T18:38:05.380Z,82.91
2023-05-05T18:40:33.117Z,81.02
2023-05-05T18:43:00.769Z,81.22
2023-05-05T18:45:28.429Z,81.42
2023-05-05T18:47:56.345Z,79.81
2023-05-05T18:50:24.085Z,79.48
2023-05-05T18:52:51.786Z,80.84
2023-05-05T18:55:21.328Z,80.01
2023-05-05T18:57:48.944Z,79.23
2023-05-05T19:00:19.747Z,80.51
2023-05-05T19:02:47.535Z,80.71
2023-05-05T19:05:15.203Z,80.36
2023-05-05T19:07:42.873Z,80.03
2023-05-05T19:10:11.788Z,80.14
2023-05-05T19:12:40.799Z,80.79
2023-05-05T19:15:09.801Z,77.56
2023-05-05T19:17:37.772Z,77.80
2023-05-05T19:20:06.373Z,79.58
2023-05-05T19:22:34.089Z,79.54
2023-05-05T19:25:01.799Z,79.18
2023-05-05T19:27:29.461Z,78.30
2023-05-05T19:29:58.527Z,78.33
2023-05-05T19:32:26.782Z,79.63
2023-05-05T19:34:54.482Z,78.07
2023-05-05T19:37:22.171Z,78.58
2023-05-05T19:39:51.559Z,76.63
2023-05-05T19:42:19.357Z,79.15
2023-05-05T19:44:46.992Z,80.09
2023-05-05T19:47:16.014Z,80.37
2023-05-05T19:49:43.722Z,82.06
2023-05-05T19:52:11.415Z,81.11
2023-05-05T19:54:39.292Z,81.52
2023-05-05T19:57:07.310Z,82.46
2023-05-05T19:59:34.948Z,82.57
2023-05-05T20:02:02.617Z,83.39
2023-05-05T20:04:31.578Z,83.93
2023-05-05T20:06:59.569Z,83.14
2023-05-05T20:09:27.460Z,83.81
2023-05-05T20:11:55.882Z,83.49
2023-05-05T20:14:23.564Z,83.11
2023-05-05T20:16:51.208Z,83.29
2023-05-05T20:19:19.111Z,83.84
2023-05-05T20:21:48.100Z,83.84
2023-05-05T20:24:15.922Z,83.14
2023-05-05T20:26:43.547Z,83.58
2023-05-05T20:29:11.319Z,83.69
2023-05-05T20:31:38.989Z,84.51
2023-05-05T20:34:06.716Z,84.86
2023-05-05T20:36:34.460Z,83.91
2023-05-05T20:39:03.540Z,86.61
2023-05-05T20:41:31.206Z,85.15
2023-05-05T20:43:58.860Z,86.69
2023-05-05T20:46:26.656Z,88.39
2023-05-05T20:48:54.313Z,88.20
2023-05-05T20:51:21.915Z,88.71
2023-05-05T20:53:49.551Z,89.55
2023-05-05T20:56:18.551Z,89.50
2023-05-05T20:58:46.167Z,89.74
2023-05-05T21:01:13.822Z,89.26
2023-05-05T21:03:41.538Z,90.51
2023-05-05T21:06:09.166Z,90.55
2023-05-05T21:08:36.893Z,89.92
2023-05-05T21:11:10.004Z,91.67
2023-05-05T21:13:39.112Z,88.61
2023-05-05T21:16:07.043Z,91.50
2023-05-05T21:18:34.854Z,91.55
2023-05-05T21:21:02.513Z,93.58
2023-05-05T21:23:31.072Z,92.45
2023-05-05T21:25:58.741Z,93.38
2023-05-05T21:28:26.365Z,92.99
2023-05-05T21:31:10.845Z,93.06
2023-05-05T21:33:43.045Z,92.24
2023-05-05T21:36:10.643Z,91.96
2023-05-05T21:38:38.324Z,91.68
2023-05-05T21:41:06.321Z,90.86
2023-05-05T21:43:33.967Z,92.14
2023-05-05T21:46:03.562Z,93.24
2023-05-05T21:48:31.757Z,91.90
2023-05-05T21:50:59.487Z,93.39
2023-05-05T21:53:27.118Z,91.85
2023-05-05T21:55:55.151Z,93.27
2023-05-05T21:58:24.329Z,93.56
2023-05-05T22:00:52.408Z,92.71
2023-05-05T22:03:21.861Z,91.43
2023-05-05T22:05:49.591Z,92.73
2023-05-05T22:08:17.311Z,92.66
2023-05-05T22:10:44.952Z,93.03
2023-05-05T22:13:12.713Z,93.79
2023-05-05T22:15:46.547Z,93.73
2023-05-05T22:18:15.284Z,94.03
2023-05-05T22:20:44.500Z,93.66
2023-05-05T22:23:13.938Z,95.73
2023-05-05T22:25:41.686Z,92.29
2023-05-05T22:28:09.366Z,91.89
2023-05-05T22:30:37.131Z,93.89
2023-05-05T22:33:05.074Z,93.04
2023-05-05T22:35:32.793Z,92.56
2023-05-05T22:38:01.785Z,93.44
2023-05-05T22:40:29.425Z,93.00
2023-05-05T22:42:57.082Z,93.24
2023-05-05T22:45:24.714Z,92.08
2023-05-05T22:47:52.676Z,90.48
2023-05-05T22:50:20.429Z,91.36
2023-05-05T22:52:48.109Z,91.15
2023-05-05T22:55:17.509Z,92.71
2023-05-05T22:57:45.148Z,93.27
2023-05-05T23:00:13.095Z,92.27
2023-05-05T23:02:41.531Z,91.80
2023-05-05T23:05:10.224Z,91.82
2023-05-05T23:07:38.468Z,90.87
2023-05-05T23:10:07.097Z,92.86
2023-05-05T23:12:36.151Z,93.63
2023-05-05T23:15:04.054Z,92.27
2023-05-05T23:17:31.749Z,93.03
2023-05-05T23:19:59.347Z,93.42
2023-05-05T23:22:27.081Z,92.97
2023-05-05T23:24:54.690Z,92.89
2023-05-05T23:27:23.041Z,92.31
2023-05-05T23:29:52.010Z,92.63
2023-05-05T23:32:19.735Z,93.03
2023-05-05T23:34:47.334Z,92.56
2023-05-05T23:37:15.130Z,91.63
2023-05-05T23:39:42.944Z,92.81
2023-05-05T23:42:10.677Z,91.99
2023-05-05T23:44:38.301Z,93.82
2023-05-05T23:47:07.685Z,94.07
2023-05-05T23:49:35.547Z,94.11
2023-05-05T23:52:03.312Z,95.47
2023-05-05T23:54:30.961Z,94.48
2023-05-05T23:56:58.660Z,95.20
2023-05-05T23:59:26.334Z,96.40
